| time (UTC) | temp F | wind direction | speed MPH | gust MPH | rain 1hr in | rain 24hr in | rain mn in | humidity % | barometer mb |
| 20260508035856 | 53 | 332 | 0.0 | 0.0 | 0.00 | 0.00 | 0.00 | 57 | 1020.8 |
| 20260508034353 | 55 | 324 | 0.0 | 0.0 | 0.00 | 0.00 | 0.00 | 55 | 1020.4 |
| 20260508032851 | 54 | 309 | 0.0 | 0.0 | 0.00 | 0.00 | 0.00 | 54 | 1020.4 |
| 20260508031348 | 53 | 318 | 0.0 | 0.0 | 0.00 | 0.00 | 0.00 | 57 | 1020.2 |
| 20260508025844 | 53 | 313 | 0.0 | 0.0 | 0.00 | 0.00 | 0.00 | 56 | 1019.9 |
| 20260508024340 | 55 | 292 | 0.0 | 0.0 | 0.00 | 0.00 | 0.00 | 50 | 1019.8 |
| 20260508022836 | 54 | 332 | 0.0 | 0.0 | 0.00 | 0.00 | 0.00 | 50 | 1019.6 |
| 20260508021331 | 56 | 335 | 0.0 | 0.0 | 0.00 | 0.00 | 0.00 | 44 | 1019.1 |
| 20260508015828 | 56 | 305 | 0.0 | 0.0 | 0.00 | 0.00 | 0.00 | 48 | 1019.3 |
| 20260508014325 | 57 | 290 | 0.0 | 0.0 | 0.00 | 0.00 | 0.00 | 47 | 1019.1 |
| 20260508012825 | 60 | 318 | 0.0 | 0.0 | 0.00 | 0.00 | 0.00 | 40 | 1019.1 |
| 20260508011323 | 59 | 194 | 0.0 | 0.0 | 0.00 | 0.00 | 0.00 | 34 | 1018.8 |
| 20260508005821 | 60 | 302 | 0.0 | 0.0 | 0.00 | 0.00 | 0.00 | 32 | 1018.5 |
| 20260508004316 | 61 | 325 | 0.0 | 0.0 | 0.00 | 0.00 | 0.00 | 36 | 1018.9 |
| 20260508002812 | 62 | 318 | 0.0 | 0.0 | 0.00 | 0.00 | 0.00 | 34 | 1018.7 |
| 20260508001307 | 61 | 292 | 0.0 | 0.0 | 0.00 | 0.00 | 0.00 | 32 | 1018.6 |
| 20260507235802 | 62 | 292 | 0.0 | 0.0 | 0.00 | 0.00 | 0.00 | 30 | 1018.5 |
| 20260507234258 | 62 | 316 | 0.0 | 0.0 | 0.00 | 0.00 | 0.00 | 30 | 1018.7 |
| 20260507232756 | 64 | 290 | 3.0 | 3.0 | 0.00 | 0.00 | 0.00 | 28 | 1018.6 |
| 20260507231252 | 65 | 331 | 2.0 | 6.0 | 0.00 | 0.00 | 0.00 | 26 | 1018.6 |
| 20260507225751 | 67 | 323 | 5.0 | 7.0 | 0.00 | 0.00 | 0.00 | 25 | 1018.7 |
| 20260507224246 | 67 | 300 | 5.0 | 7.0 | 0.00 | 0.00 | 0.00 | 25 | 1018.5 |
| 20260507222742 | 66 | 291 | 4.0 | 6.0 | 0.00 | 0.00 | 0.00 | 30 | 1018.8 |
| 20260507221237 | 67 | 26 | 0.0 | 0.0 | 0.00 | 0.00 | 0.00 | 31 | 1018.7 |
| 20260507215734 | 66 | 309 | 5.0 | 6.0 | 0.00 | 0.00 | 0.00 | 27 | 1018.9 |
| 20260507214232 | 67 | 293 | 3.0 | 5.0 | 0.00 | 0.00 | 0.00 | 27 | 1019.2 |
| 20260507212732 | 66 | 324 | 3.0 | 6.0 | 0.00 | 0.00 | 0.00 | 28 | 1019.2 |
| 20260507211227 | 65 | 295 | 5.0 | 6.0 | 0.00 | 0.00 | 0.00 | 27 | 1019.8 |
| 20260507205724 | 65 | 279 | 5.0 | 6.0 | 0.00 | 0.00 | 0.00 | 28 | 1019.8 |
| 20260507204220 | 66 | 261 | 6.0 | 6.0 | 0.00 | 0.00 | 0.00 | 28 | 1020.0 |
| 20260507202717 | 65 | 280 | 4.0 | 5.0 | 0.00 | 0.00 | 0.00 | 31 | 1020.3 |
| 20260507201217 | 64 | 247 | 2.0 | 5.0 | 0.00 | 0.00 | 0.00 | 28 | 1020.4 |
| 20260507195712 | 64 | 279 | 4.0 | 5.0 | 0.00 | 0.00 | 0.00 | 29 | 1020.7 |
| 20260507194208 | 65 | 245 | 1.0 | 3.0 | 0.00 | 0.00 | 0.00 | 29 | 1020.8 |
| 20260507192704 | 64 | 295 | 2.0 | 3.0 | 0.00 | 0.00 | 0.00 | 29 | 1020.9 |
| 20260507191200 | 62 | 281 | 1.0 | 2.0 | 0.00 | 0.00 | 0.00 | 30 | 1021.1 |
| 20260507185659 | 63 | 236 | 0.0 | 0.0 | 0.00 | 0.00 | 0.00 | 25 | 1020.9 |
| 20260507184157 | 62 | 240 | 0.0 | 0.0 | 0.00 | 0.00 | 0.00 | 24 | 1021.1 |
| 20260507182653 | 61 | 252 | 0.0 | 0.0 | 0.00 | 0.00 | 0.00 | 26 | 1021.4 |
| 20260507181148 | 61 | 275 | 0.0 | 0.0 | 0.00 | 0.00 | 0.00 | 30 | 1021.6 |
| 20260507175649 | 61 | 265 | 1.0 | 2.0 | 0.00 | 0.00 | 0.00 | 26 | 1021.9 |
| 20260507174147 | 60 | 287 | 0.0 | 3.0 | 0.00 | 0.00 | 0.00 | 26 | 1021.7 |
| 20260507172643 | 60 | 281 | 3.0 | 5.0 | 0.00 | 0.00 | 0.00 | 24 | 1022.2 |
| 20260507171138 | 59 | 272 | 0.0 | 0.0 | 0.00 | 0.00 | 0.00 | 25 | 1022.1 |
| 20260507165633 | 59 | 272 | 0.0 | 0.0 | 0.00 | 0.00 | 0.00 | 25 | 1022.5 |
| 20260507164129 | 59 | 195 | 0.0 | 0.0 | 0.00 | 0.00 | 0.00 | 27 | 1022.5 |
| 20260507162625 | 57 | 241 | 0.0 | 0.0 | 0.00 | 0.00 | 0.00 | 29 | 1022.6 |
| 20260507161121 | 57 | 264 | 2.0 | 3.0 | 0.00 | 0.00 | 0.00 | 30 | 1022.7 |
| 20260507155621 | 56 | 279 | 3.0 | 5.0 | 0.00 | 0.00 | 0.00 | 33 | 1023.0 |
| 20260507154118 | 55 | 282 | 3.0 | 5.0 | 0.00 | 0.00 | 0.00 | 36 | 1022.5 |
| 20260507152613 | 54 | 277 | 4.0 | 7.0 | 0.00 | 0.00 | 0.00 | 38 | 1023.0 |
| 20260507151109 | 53 | 286 | 4.0 | 5.0 | 0.00 | 0.00 | 0.00 | 39 | 1022.7 |
| 20260507145603 | 52 | 244 | 4.0 | 5.0 | 0.00 | 0.00 | 0.00 | 39 | 1022.8 |
| 20260507144101 | 51 | 275 | 5.0 | 6.0 | 0.00 | 0.00 | 0.00 | 39 | 1022.7 |
| 20260507142600 | 49 | 262 | 5.0 | 6.0 | 0.00 | 0.00 | 0.00 | 42 | 1022.6 |
| 20260507141057 | 48 | 267 | 5.0 | 6.0 | 0.00 | 0.00 | 0.00 | 44 | 1022.7 |
| 20260507135553 | 46 | 283 | 3.0 | 5.0 | 0.00 | 0.00 | 0.00 | 48 | 1022.6 |
| 20260507134049 | 44 | 288 | 4.0 | 6.0 | 0.00 | 0.00 | 0.00 | 55 | 1022.6 |
| 20260507132545 | 41 | 281 | 1.0 | 2.0 | 0.00 | 0.00 | 0.00 | 60 | 1022.4 |
| 20260507131042 | 40 | 288 | 4.0 | 5.0 | 0.00 | 0.00 | 0.00 | 58 | 1022.5 |
| 20260507125541 | 38 | 280 | 0.0 | 0.0 | 0.00 | 0.00 | 0.00 | 60 | 1022.4 |
| 20260507124038 | 37 | 299 | 0.0 | 0.0 | 0.00 | 0.00 | 0.00 | 62 | 1022.0 |
| 20260507122533 | 35 | 296 | 0.0 | 0.0 | 0.00 | 0.00 | 0.00 | 62 | 1022.1 |
| 20260507121032 | 35 | 287 | 4.0 | 5.0 | 0.00 | 0.00 | 0.00 | 61 | 1021.7 |
| 20260507115528 | 34 | 292 | 0.0 | 0.0 | 0.00 | 0.00 | 0.00 | 65 | 1021.6 |
| 20260507114023 | 33 | 288 | 0.0 | 0.0 | 0.00 | 0.00 | 0.00 | 67 | 1022.1 |
| 20260507112521 | 31 | 277 | 0.0 | 0.0 | 0.00 | 0.00 | 0.00 | 72 | 1022.0 |
| 20260507111016 | 31 | 274 | 0.0 | 0.0 | 0.00 | 0.00 | 0.00 | 72 | 1021.9 |
| 20260507105512 | 31 | 276 | 0.0 | 0.0 | 0.00 | 0.00 | 0.00 | 73 | 1021.9 |
| 20260507104008 | 30 | 269 | 0.0 | 0.0 | 0.00 | 0.00 | 0.00 | 75 | 1021.9 |
| 20260507102504 | 31 | 275 | 0.0 | 0.0 | 0.00 | 0.00 | 0.00 | 75 | 1022.0 |
| 20260507100958 | 31 | 294 | 0.0 | 0.0 | 0.00 | 0.00 | 0.00 | 76 | 1022.2 |
| 20260507095457 | 30 | 270 | 0.0 | 0.0 | 0.00 | 0.00 | 0.00 | 77 | 1022.1 |
| 20260507093952 | 30 | 260 | 0.0 | 0.0 | 0.00 | 0.00 | 0.00 | 78 | 1022.2 |
| 20260507092450 | 30 | 241 | 0.0 | 0.0 | 0.00 | 0.00 | 0.00 | 78 | 1022.4 |
| 20260507090945 | 29 | 281 | 0.0 | 0.0 | 0.00 | 0.00 | 0.00 | 83 | 1022.4 |
| 20260507085441 | 28 | 287 | 0.0 | 0.0 | 0.00 | 0.00 | 0.00 | 87 | 1022.5 |
| 20260507083938 | 28 | 274 | 1.0 | 2.0 | 0.00 | 0.00 | 0.00 | 89 | 1022.6 |
| 20260507082438 | 30 | 267 | 0.0 | 0.0 | 0.00 | 0.00 | 0.00 | 91 | 1022.6 |
| 20260507080935 | 29 | 285 | 3.0 | 7.0 | 0.00 | 0.00 | 0.00 | 94 | 1022.7 |
| 20260507075434 | 28 | 285 | 5.0 | 7.0 | 0.00 | 0.00 | 0.00 | 96 | 1023.0 |
| 20260507073931 | 28 | 276 | 0.0 | 0.0 | 0.00 | 0.00 | 0.00 | 96 | 1023.2 |
| 20260507072428 | 26 | 272 | 0.0 | 0.0 | 0.00 | 0.00 | 0.00 | 96 | 1023.5 |
| 20260507070924 | 26 | 274 | 0.0 | 0.0 | 0.00 | 0.00 | 0.00 | 96 | 1023.5 |
| 20260507065421 | 24 | 301 | 0.0 | 0.0 | 0.00 | 0.00 | 0.00 | 96 | 1023.6 |
| 20260507063920 | 24 | 325 | 0.0 | 0.0 | 0.00 | 0.00 | 0.00 | 96 | 1023.6 |
| 20260507062416 | 25 | 297 | 0.0 | 0.0 | 0.00 | 0.00 | 0.00 | 96 | 1023.6 |
| 20260507060916 | 27 | 307 | 0.0 | 0.0 | 0.00 | 0.00 | 0.00 | 96 | 1023.9 |
| 20260507055416 | 28 | 308 | 0.0 | 0.0 | 0.00 | 0.02 | 0.02 | 95 | 1023.5 |
| 20260507053913 | 29 | 265 | 0.0 | 0.0 | 0.00 | 0.02 | 0.02 | 95 | 1023.6 |
| 20260507052412 | 29 | 224 | 0.0 | 0.0 | 0.00 | 0.02 | 0.02 | 95 | 1023.6 |
| 20260507050909 | 29 | 213 | 0.0 | 0.0 | 0.00 | 0.02 | 0.02 | 95 | 1023.5 |
| 20260507045404 | 29 | 270 | 0.0 | 0.0 | 0.00 | 0.02 | 0.02 | 95 | 1023.6 |
| 20260507043900 | 29 | 263 | 0.0 | 0.0 | 0.00 | 0.02 | 0.02 | 95 | 1023.5 |
| 20260507042355 | 30 | 248 | 0.0 | 0.0 | 0.00 | 0.02 | 0.02 | 95 | 1023.7 |
| 20260507040852 | 30 | 291 | 0.0 | 0.0 | 0.00 | 0.02 | 0.02 | 95 | 1023.5 |